LIVP 192355Z 36012KT CAVOK 08/08 Q1033 RMK SCT SCT200 MON LIB VAL FOSCHIA SKC SUP VIS MIN 9999 LIVP 192255Z 03011KT CAVOK 08/07 Q1033 RMK SCT SCT200 MON LIB VAL FOSCHIA SKC SUP VIS MIN 9999 LIVP 192155Z 03006KT CAVOK 09/08 Q1033 RMK SCT SCT200 MON LIB VAL FOSCHIA SKC SUP VIS MIN 9999 LIVP 192055Z VRB03KT CAVOK 09/08 Q1033 RMK SCT SCT200 MON LIB VAL FOSCHIA SKC SUP VIS MIN 9999 LIVP 191955Z 25008KT 210V290 9999 FEW020 10/07 Q1033 LIVP 191855Z 22012KT 9999 FEW015 10/07 Q1032 LIVP 191755Z 20008KT 160V230 9999 FEW015 12/06 Q1032 LIVP 191655Z 23008KT 9999 FEW013 FEW015CB 14/06 Q1032 LIVP 191555Z 20011KT 9999 FEW013 14/07 Q1033 LIVP 191455Z 21009KT 180V240 9999 FEW013 15/07 Q1033 LIVP 191355Z 19007KT 9999 FEW013 15/08 Q1033 LIVP 191255Z VRB03KT 9999 SCT008 14/08 Q1033 LIVP 191155Z 09003KT 9999 SCT008 11/07 Q1033 LIVP 191055Z 10002KT 9999 SCT005 11/08 Q1033 LIVP 190955Z VRB03KT 9999 SCT003 SCT025 10/07 Q1033 LIVP 190855Z 27002KT 9999 SCT002 SCT025 10/07 Q1032 RMK BKN MON GEN INC VAL CLD SCT VIS MIN 9999 LIVP 190755Z 03002KT 9999 SCT001 SCT025 11/06 Q1032 RMK BKN MON W GEN INC VAL CLD SCT VIS MIN 9999 LIVP 190655Z 10002KT 0900 FG VV/// 09/08 Q1032 RMK MON INVIS VAL INVIS VIS MIN 0900 LIVP 190555Z 11004KT 040V140 0900 FG VV/// 08/07 Q1031 RMK MON INVIS VAL INVIS VIS MIN 0900 LIVP 190455Z VRB03KT 0100 FG VV/// 07/07 Q1031 RMK MON INVIS VAL INVIS VIS MIN 0100 LIVP 190355Z 20008KT 0000 FG VV/// 07/07 Q1031 RMK MON INVIS VAL INVIS VIS MIN 0000 LIVP 190255Z 22010KT 0000 FG VV/// 07/07 Q1031 RMK MON INVIS VAL INVIS VIS MIN 0000 LIVP 190155Z 22010KT 0000 FG VV/// 07/07 Q1031 RMK MON INVIS VAL INVIS VIS MIN 0000 LIVP 190055Z 21014KT 0000 VV/// 07/07 Q1031 RMK MON INVIS VAL INVIS VIS MIN 0000 LIVP 182355Z 20010KT 180V240 0000 FG VV/// 08/08 Q1031 RMK MON INVIS VAL INVIS VIS MIN 0000 LIVP 182255Z 20010KT 0000 FG VV/// 08/08 Q1031 RMK MON INVIS VAL INVIS VIS MIN 0000 LIVP 182155Z 20011KT 0000 FG VV/// 08/08 Q1031 RMK MON INVIS VAL INVIS VIS MIN 0000 LIVP 182055Z 20012KT 0000 FG VV/// 08/08 Q1031 RMK MON INVIS VAL INVIS VIS MIN 0000 LIVP 181955Z 20013KT 0000 FG VV/// 08/08 Q1030 RETS RMK MON INVIS VAL INVIS VIS MIN 0000 LIVP 181855Z 20017KT 0000 TS FG VV/// 08/M30 Q1030 RMK MON INVIS VAL INVIS VIS MIN 0000 LIVP 181755Z 20012KT 0900 FG VV/// 10/08 Q1029 RMK MON INVIS VAL INVIS VIS MIN 0900 LIVP 181655Z 20010KT 170V230 9999 2000S FEW/// FEW005CB SCT025 11/08 Q1029 RMK BKN MON S INVIS VAL S INVIS VIS MIN 2000S LIVP 181555Z 21011KT 9999 FEW001TCU SCT030 11/07 Q1029 RMK BKN MON W CLD SCT VAL CLD SCT VIS MIN 9999 LIVP 181455Z 20008KT 9999 FEW003TCU 14/08 Q1029 RMK SCT MON W CLD SCT VAL CLD SCT VIS MIN 9999 LIVP 181355Z 19007KT 9999 FEW/// FEW010TCU 13/08 Q1029 RMK BKN MON W CLD SCT VAL CLD SCT VIS MIN 9999 LIVP 181255Z 18005KT 060V220 9999 FEW/// FEW010TCU SCT025 13/08 Q1029

METAR Messwerte "PAGANELLA MOUNTA" LIVP

Zurück zur Übersicht

Ortsname
Ländercode / m ü. NN
Zeit Temperatur Taupunkt Rel.
Luftfeuchte
Luftdruck:
Altimeter
NN
Station
Wind in Beaufort
(Knoten)
Sichtweite
(Meter)
Wolken
(Meter über Grund)
Wettererscheinung
PAGANELLA MOUNTA
IT 2099
Fr 20.05. 01:5588100 %1033
1040
801
N 4 (12)>= 10000Nicht signifikant 
PAGANELLA MOUNTA
IT 2099
Fr 20.05. 00:558793 %1033
1040
801
NNO 4 (11)>= 10000Nicht signifikant 
PAGANELLA MOUNTA
IT 2099
Do 19.05. 23:559893 %1033
1039
801
NNO 2 (6)>= 10000Nicht signifikant 
PAGANELLA MOUNTA
IT 2099
Do 19.05. 22:559893 %1033
1039
801
Uml 2 (3)>= 10000Nicht signifikant 
PAGANELLA MOUNTA
IT 2099
Do 19.05. 21:5510782 %1033
1038
801
WSW 3 (8)
SSW - WNW
>= 10000Leicht bewölkt (610) 
PAGANELLA MOUNTA
IT 2099
Do 19.05. 20:5510782 %1032
1037
800
SW 4 (12)>= 10000Leicht bewölkt (460) 
PAGANELLA MOUNTA
IT 2099
Do 19.05. 19:5512667 %1032
1035
800
SSW 3 (8)
SSO - SW
>= 10000Leicht bewölkt (460) 
PAGANELLA MOUNTA
IT 2099
Do 19.05. 18:5514658 %1032
1033
800
SW 3 (8)>= 10000Leicht bewölkt Cb (460)
Leicht bewölkt (400)
 
PAGANELLA MOUNTA
IT 2099
Do 19.05. 17:5514763 %1033
1035
801
SSW 4 (11)>= 10000Leicht bewölkt (400) 
PAGANELLA MOUNTA
IT 2099
Do 19.05. 16:5515759 %1033
1034
801
SSW 3 (9)
S - WSW
>= 10000Leicht bewölkt (400) 
PAGANELLA MOUNTA
IT 2099
Do 19.05. 15:5515863 %1033
1034
801
S 3 (7)>= 10000Leicht bewölkt (400) 
PAGANELLA MOUNTA
IT 2099
Do 19.05. 14:5514867 %1033
1035
801
Uml 2 (3)>= 10000Wolkig (240) 
PAGANELLA MOUNTA
IT 2099
Do 19.05. 13:5511776 %1033
1037
801
O 2 (3)>= 10000Wolkig (240) 
PAGANELLA MOUNTA
IT 2099
Do 19.05. 12:5511882 %1033
1037
801
O 1 (2)>= 10000Wolkig (150) 
PAGANELLA MOUNTA
IT 2099
Do 19.05. 11:5510782 %1033
1038
801
Uml 2 (3)>= 10000Wolkig (760)
Wolkig (91)
 
PAGANELLA MOUNTA
IT 2099
Do 19.05. 10:5510782 %1032
1037
800
W 1 (2)>= 10000Wolkig (760)
Wolkig (61)
 
PAGANELLA MOUNTA
IT 2099
Do 19.05. 09:5511671 %1032
1036
800
NNO 1 (2)>= 10000Wolkig (760)
Wolkig (30)
 
PAGANELLA MOUNTA
IT 2099
Do 19.05. 08:559893 %1032
1038
800
O 1 (2)900 Nebel
PAGANELLA MOUNTA
IT 2099
Do 19.05. 07:558793 %1031
1038
800
OSO 2 (4)
NO - SO
900 Nebel
PAGANELLA MOUNTA
IT 2099
Do 19.05. 06:5577100 %1031
1039
800
Uml 2 (3)100 Nebel
PAGANELLA MOUNTA
IT 2099
Do 19.05. 05:5577100 %1031
1039
800
SSW 3 (8)0 Nebel
PAGANELLA MOUNTA
IT 2099
Do 19.05. 04:5577100 %1031
1039
800
SW 3 (10)0 Nebel
PAGANELLA MOUNTA
IT 2099
Do 19.05. 03:5577100 %1031
1039
800
SW 3 (10)0 Nebel
PAGANELLA MOUNTA
IT 2099
Do 19.05. 02:5577100 %1031
1039
800
SSW 4 (14)0  
PAGANELLA MOUNTA
IT 2099
Do 19.05. 01:5588100 %1031
1038
800
SSW 3 (10)
S - WSW
0 Nebel
PAGANELLA MOUNTA
IT 2099
Do 19.05. 00:5588100 %1031
1038
800
SSW 3 (10)0 Nebel
PAGANELLA MOUNTA
IT 2099
Mi 18.05. 23:5588100 %1031
1038
800
SSW 4 (11)0 Nebel
PAGANELLA MOUNTA
IT 2099
Mi 18.05. 22:5588100 %1031
1038
800
SSW 4 (12)0 Nebel
PAGANELLA MOUNTA
IT 2099
Mi 18.05. 21:5588100 %1030
1037
799
SSW 4 (13)0 Nebel
PAGANELLA MOUNTA
IT 2099
Mi 18.05. 20:558-305 %1030
1037
799
SSW 5 (17)0 Nebel
PAGANELLA MOUNTA
IT 2099
Mi 18.05. 19:5510887 %1029
1034
798
SSW 4 (12)900 Nebel
PAGANELLA MOUNTA
IT 2099
Mi 18.05. 18:5511882 %1029
1033
798
SSW 3 (10)
S - SW
>= 10000Wolkig (760)
Leicht bewölkt Cb (150)
 
PAGANELLA MOUNTA
IT 2099
Mi 18.05. 17:5511776 %1029
1033
798
SSW 4 (11)>= 10000Wolkig (910)
Leicht bewölkt (30)
 
PAGANELLA MOUNTA
IT 2099
Mi 18.05. 16:5514867 %1029
1030
798
SSW 3 (8)>= 10000Leicht bewölkt (91) 
PAGANELLA MOUNTA
IT 2099
Mi 18.05. 15:5513872 %1029
1031
798
S 3 (7)>= 10000Leicht bewölkt (300) 
PAGANELLA MOUNTA
IT 2099
Mi 18.05. 14:5513872 %1029
1031
798
S 2 (5)
ONO - SW
>= 10000Wolkig (760)
Leicht bewölkt (300)
 

Altimeter: Einstellung am Altimeter (Höhenmesser), die Höhe 0 muss auf diesen Luftdruckwert zeigen, damit das Gerät die Stationshöhe richtig anzeigt.

NN: Luftdruck reduziert auf "Normal Null", auf Meereshöhe, dieser von der Temperatur abhängige Wert wird bisweilen unkorrekt einfach als "Luftdruck" bezeichnet. Eigentlich nur eine fiktive Größe, die es erlaubt, Stationen auf unterschiedlichen Höhen miteinander zu vergleichen.

Station: Realer Luftdruck an der Station.